createdAt,value
2017-05-20T00:00:47.227Z,41.35
2017-05-20T00:01:47.189Z,41.06
2017-05-20T00:02:47.197Z,41.35
2017-05-20T00:03:46.893Z,41.55
2017-05-20T00:04:47.211Z,41.16
2017-05-20T00:05:47.220Z,41.35
2017-05-20T00:06:46.918Z,41.25
2017-05-20T00:07:47.237Z,40.96
2017-05-20T00:08:47.343Z,41.06
2017-05-20T00:09:47.252Z,41.06
2017-05-20T00:10:47.308Z,41.06
2017-05-20T00:11:47.267Z,41.35
2017-05-20T00:12:47.277Z,41.25
2017-05-20T00:13:46.975Z,41.16
2017-05-20T00:14:47.296Z,40.96
2017-05-20T00:15:47.298Z,41.35
2017-05-20T00:16:47.308Z,41.06
2017-05-20T00:17:47.317Z,41.45
2017-05-20T00:18:47.324Z,41.24
2017-05-20T00:19:47.027Z,40.94
2017-05-20T00:20:47.033Z,41.35
2017-05-20T00:21:47.350Z,41.16
2017-05-20T00:22:47.098Z,41.45
2017-05-20T00:23:47.418Z,41.16
2017-05-20T00:24:47.424Z,41.24
2017-05-20T00:25:47.381Z,40.94
2017-05-20T00:26:47.391Z,41.04
2017-05-20T00:27:47.396Z,41.45
2017-05-20T00:28:47.416Z,41.24
2017-05-20T00:29:47.415Z,41.04
2017-05-20T00:30:47.115Z,41.33
2017-05-20T00:31:47.124Z,41.24
2017-05-20T00:32:47.437Z,41.33
2017-05-20T00:33:47.497Z,41.04
2017-05-20T00:34:47.457Z,41.04
2017-05-20T00:35:47.514Z,41.42
2017-05-20T00:36:47.518Z,41.24
2017-05-20T00:37:47.477Z,41.04
2017-05-20T00:38:47.489Z,41.04
2017-05-20T00:39:47.185Z,40.94
2017-05-20T00:40:47.501Z,40.84
2017-05-20T00:41:47.509Z,41.04
2017-05-20T00:42:47.517Z,41.42
2017-05-20T00:43:47.218Z,41.04
2017-05-20T00:44:47.226Z,41.42
2017-05-20T00:45:47.543Z,41.24
2017-05-20T00:46:47.289Z,41.04
2017-05-20T00:47:47.563Z,41.14
2017-05-20T00:48:47.619Z,41.24
2017-05-20T00:49:47.576Z,41.24
2017-05-20T00:50:47.633Z,41.14
2017-05-20T00:51:47.281Z,41.33
2017-05-20T00:52:47.600Z,41.14
2017-05-20T00:53:47.298Z,41.14
2017-05-20T00:54:47.617Z,41.33
2017-05-20T00:55:47.627Z,41.33
2017-05-20T00:56:47.680Z,41.04
2017-05-20T00:57:47.639Z,41.42
2017-05-20T00:58:47.651Z,41.24
2017-05-20T00:59:47.655Z,41.33
2017-05-20T01:00:47.664Z,41.42
2017-05-20T01:01:47.361Z,40.75
2017-05-20T01:02:47.728Z,41.24
2017-05-20T01:03:47.690Z,40.84
2017-05-20T01:04:47.696Z,41.14
2017-05-20T01:05:47.700Z,41.42
2017-05-20T01:06:47.711Z,41.33
2017-05-20T01:07:47.719Z,41.14
2017-05-20T01:08:47.780Z,41.33
2017-05-20T01:09:47.737Z,41.04
2017-05-20T01:10:47.743Z,41.04
2017-05-20T01:11:47.751Z,41.04
2017-05-20T01:12:47.808Z,40.36
2017-05-20T01:13:47.459Z,40.94
2017-05-20T01:14:47.776Z,41.11
2017-05-20T01:15:47.472Z,41.02
2017-05-20T01:16:47.792Z,40.84
2017-05-20T01:17:47.799Z,40.56
2017-05-20T01:18:47.811Z,40.83
2017-05-20T01:19:47.504Z,40.34
2017-05-20T01:20:47.819Z,40.73
2017-05-20T01:21:47.830Z,41.21
2017-05-20T01:22:47.839Z,41.52
2017-05-20T01:23:47.537Z,41.02
2017-05-20T01:24:47.594Z,40.83
2017-05-20T01:25:47.913Z,41.41
2017-05-20T01:26:47.871Z,40.53
2017-05-20T01:27:47.566Z,41.11
2017-05-20T01:28:47.576Z,40.92
2017-05-20T01:29:47.892Z,40.73
2017-05-20T01:30:47.950Z,40.34
2017-05-20T01:31:47.958Z,40.44
2017-05-20T01:32:47.605Z,40.34
2017-05-20T01:33:47.928Z,40.25
2017-05-20T01:34:47.932Z,40.34
2017-05-20T01:35:47.943Z,40.83
2017-05-20T01:36:48.001Z,41.41
2017-05-20T01:37:47.956Z,40.83
2017-05-20T01:38:47.976Z,40.63
2017-05-20T01:39:47.973Z,40.92
2017-05-20T01:40:48.031Z,40.34
2017-05-20T01:41:47.987Z,40.25
2017-05-20T01:42:47.686Z,40.34
2017-05-20T01:43:47.694Z,40.25
2017-05-20T01:44:48.014Z,40.34
2017-05-20T01:45:48.019Z,40.83
2017-05-20T01:46:47.717Z,40.34
2017-05-20T01:47:48.038Z,40.15
2017-05-20T01:48:48.045Z,40.15
2017-05-20T01:49:48.052Z,40.44
2017-05-20T01:50:48.066Z,40.25
2017-05-20T01:51:48.066Z,39.95
2017-05-20T01:52:48.076Z,40.53
2017-05-20T01:53:48.185Z,40.84
2017-05-20T01:54:47.781Z,40.34
2017-05-20T01:55:48.099Z,40.25
2017-05-20T01:56:48.108Z,40.15
2017-05-20T01:57:48.113Z,40.34
2017-05-20T01:58:48.223Z,40.05
2017-05-20T01:59:48.129Z,40.05
2017-05-20T02:00:48.136Z,40.46
2017-05-20T02:01:48.144Z,40.07
2017-05-20T02:02:48.203Z,39.97
2017-05-20T02:03:48.165Z,39.88
2017-05-20T02:04:48.170Z,39.76
2017-05-20T02:05:48.177Z,39.78
2017-05-20T02:06:48.186Z,40.07
2017-05-20T02:07:48.197Z,39.97
2017-05-20T02:08:48.202Z,39.88
2017-05-20T02:09:48.208Z,39.59
2017-05-20T02:10:48.221Z,39.59
2017-05-20T02:11:48.225Z,39.59
2017-05-20T02:12:48.283Z,39.47
2017-05-20T02:13:47.932Z,39.57
2017-05-20T02:14:48.247Z,39.2
2017-05-20T02:15:48.305Z,39.47
2017-05-20T02:16:48.266Z,39.09
2017-05-20T02:17:48.272Z,39.67
2017-05-20T02:18:48.279Z,39.09
2017-05-20T02:19:47.974Z,39.28
2017-05-20T02:20:48.294Z,39.29
2017-05-20T02:21:48.302Z,39.49
2017-05-20T02:22:48.309Z,39.28
2017-05-20T02:23:48.371Z,39.18
2017-05-20T02:24:48.014Z,39.37
2017-05-20T02:25:48.334Z,39.76
2017-05-20T02:26:48.391Z,39.67
2017-05-20T02:27:48.351Z,39.11
2017-05-20T02:28:48.410Z,39.28
2017-05-20T02:29:48.362Z,39.29
2017-05-20T02:30:48.371Z,38.81
2017-05-20T02:31:48.381Z,39.11
2017-05-20T02:32:48.440Z,39.28
2017-05-20T02:33:48.394Z,38.81
2017-05-20T02:34:48.405Z,38.79
2017-05-20T02:35:48.459Z,39.28
2017-05-20T02:36:48.416Z,39.09
2017-05-20T02:37:48.429Z,39.11
2017-05-20T02:38:48.434Z,38.89
2017-05-20T02:39:48.440Z,38.53
2017-05-20T02:40:48.450Z,38.7
2017-05-20T02:41:48.456Z,38.7
2017-05-20T02:42:48.515Z,38.79
2017-05-20T02:43:48.523Z,38.79
2017-05-20T02:44:48.171Z,38.79
2017-05-20T02:45:48.180Z,38.79
2017-05-20T02:46:48.497Z,39.37
2017-05-20T02:47:48.196Z,38.79
2017-05-20T02:48:48.201Z,38.79
2017-05-20T02:49:48.523Z,38.6
2017-05-20T02:50:48.577Z,38.7
2017-05-20T02:51:48.534Z,38.7
2017-05-20T02:52:48.543Z,38.6
2017-05-20T02:53:48.550Z,38.89
2017-05-20T02:54:48.562Z,38.6
2017-05-20T02:55:48.566Z,38.79
2017-05-20T02:56:48.576Z,39.28
2017-05-20T02:57:48.583Z,38.79
2017-05-20T02:58:48.590Z,38.6
2017-05-20T02:59:48.603Z,38.79
2017-05-20T03:00:48.608Z,38.79
2017-05-20T03:01:48.615Z,38.79
2017-05-20T03:02:48.674Z,38.7
2017-05-20T03:03:48.631Z,38.7
2017-05-20T03:04:48.635Z,39.18
2017-05-20T03:05:48.646Z,38.89
2017-05-20T03:06:48.344Z,38.79
2017-05-20T03:07:48.662Z,38.5
2017-05-20T03:08:48.457Z,38.5
2017-05-20T03:09:48.412Z,38.7
2017-05-20T03:10:48.420Z,38.79
2017-05-20T03:11:48.382Z,38.79
2017-05-20T03:12:48.396Z,38.7
2017-05-20T03:13:48.707Z,38.5
2017-05-20T03:14:48.401Z,38.5
2017-05-20T03:15:48.721Z,38.5
2017-05-20T03:16:48.731Z,38.41
2017-05-20T03:17:48.740Z,38.7
2017-05-20T03:18:48.435Z,38.6
2017-05-20T03:19:48.445Z,38.89
2017-05-20T03:20:48.760Z,38.5
2017-05-20T03:21:48.508Z,38.5
2017-05-20T03:22:48.466Z,38.21
2017-05-20T03:23:48.791Z,38.31
2017-05-20T03:24:48.529Z,38.31
2017-05-20T03:25:48.798Z,38.41
2017-05-20T03:26:48.855Z,38.41
2017-05-20T03:27:48.817Z,38.31
2017-05-20T03:28:48.824Z,38.31
2017-05-20T03:29:48.836Z,38.79
2017-05-20T03:30:48.838Z,38.6
2017-05-20T03:31:48.847Z,38.6
2017-05-20T03:32:48.857Z,38.21
2017-05-20T03:33:48.549Z,38.21
2017-05-20T03:34:48.556Z,38.21
2017-05-20T03:35:48.924Z,38.02
2017-05-20T03:36:48.885Z,38.41
2017-05-20T03:37:48.892Z,38.6
2017-05-20T03:38:48.898Z,38.6
2017-05-20T03:39:48.598Z,38.5
2017-05-20T03:40:48.915Z,38.12
2017-05-20T03:41:48.923Z,38.12
2017-05-20T03:42:48.930Z,38.02
2017-05-20T03:43:48.938Z,38.02
2017-05-20T03:44:49.246Z,38.12
2017-05-20T03:45:48.695Z,37.92
2017-05-20T03:46:48.962Z,38.02
2017-05-20T03:47:48.707Z,37.92
2017-05-20T03:48:48.978Z,37.54
2017-05-20T03:49:48.984Z,37.82
2017-05-20T03:50:49.041Z,37.73
2017-05-20T03:51:49.000Z,37.54
2017-05-20T03:52:49.007Z,37.73
2017-05-20T03:53:49.066Z,37.82
2017-05-20T03:54:49.024Z,37.82
2017-05-20T03:55:49.030Z,37.54
2017-05-20T03:56:49.038Z,37.82
2017-05-20T03:57:49.049Z,37.82
2017-05-20T03:58:48.797Z,37.73
2017-05-20T03:59:49.113Z,37.34
2017-05-20T04:00:49.125Z,37.44
2017-05-20T04:01:49.077Z,37.73
2017-05-20T04:02:49.085Z,37.82
2017-05-20T04:03:49.143Z,37.44
2017-05-20T04:04:48.790Z,37.24
2017-05-20T04:05:49.156Z,37.34
2017-05-20T04:06:49.118Z,37.54
2017-05-20T04:07:49.126Z,37.24
2017-05-20T04:08:49.199Z,37.34
2017-05-20T04:09:49.136Z,37.44
2017-05-20T04:10:49.147Z,37.44
2017-05-20T04:11:48.845Z,37.54
2017-05-20T04:12:49.169Z,37.73
2017-05-20T04:13:49.173Z,37.44
2017-05-20T04:14:49.178Z,37.34
2017-05-20T04:15:49.186Z,37.05
2017-05-20T04:16:48.882Z,37.15
2017-05-20T04:17:48.893Z,37.05
2017-05-20T04:18:49.212Z,37.05
2017-05-20T04:19:49.269Z,36.66
2017-05-20T04:20:49.222Z,37.15
2017-05-20T04:21:49.233Z,37.15
2017-05-20T04:22:49.286Z,37.05
2017-05-20T04:23:49.248Z,37.24
2017-05-20T04:24:49.256Z,37.24
2017-05-20T04:25:49.265Z,36.86
2017-05-20T04:26:49.273Z,36.76
2017-05-20T04:27:49.280Z,36.96
2017-05-20T04:28:49.285Z,37.05
2017-05-20T04:29:49.298Z,36.76
2017-05-20T04:30:49.302Z,36.86
2017-05-20T04:31:48.997Z,36.96
2017-05-20T04:32:49.006Z,36.86
2017-05-20T04:33:49.015Z,36.76
2017-05-20T04:34:49.025Z,36.96
2017-05-20T04:35:49.028Z,36.96
2017-05-20T04:36:49.036Z,36.86
2017-05-20T04:37:49.048Z,36.68
2017-05-20T04:38:49.055Z,36.76
2017-05-20T04:39:49.060Z,36.49
2017-05-20T04:40:49.070Z,37.17
2017-05-20T04:41:49.077Z,36.78
2017-05-20T04:42:49.085Z,37.55
2017-05-20T04:43:49.093Z,37.75
2017-05-20T04:44:49.410Z,37.46
2017-05-20T04:45:49.418Z,37.24
2017-05-20T04:46:49.527Z,37.05
2017-05-20T04:47:49.444Z,37.34
2017-05-20T04:48:49.183Z,37.26
2017-05-20T04:49:49.137Z,37.24
2017-05-20T04:50:49.148Z,37.44
2017-05-20T04:51:49.467Z,37.54
2017-05-20T04:52:49.475Z,37.73
2017-05-20T04:53:49.481Z,37.82
2017-05-20T04:54:49.490Z,37.63
2017-05-20T04:55:49.188Z,37.34
2017-05-20T04:56:49.195Z,37.73
2017-05-20T04:57:49.204Z,37.73
2017-05-20T04:58:49.523Z,37.54
2017-05-20T04:59:49.532Z,37.24
2017-05-20T05:00:49.225Z,37.24
2017-05-20T05:01:49.235Z,36.86
2017-05-20T05:02:49.243Z,36.76
2017-05-20T05:03:49.300Z,36.96
2017-05-20T05:04:49.259Z,36.47
2017-05-20T05:05:49.265Z,37.44
2017-05-20T05:06:49.587Z,37.36
2017-05-20T05:07:49.596Z,37.34
2017-05-20T05:08:49.600Z,37.44
2017-05-20T05:09:49.297Z,37.15
2017-05-20T05:10:49.613Z,36.76
2017-05-20T05:11:49.623Z,36.86
2017-05-20T05:12:49.683Z,36.98
2017-05-20T05:13:49.640Z,36.98
2017-05-20T05:14:49.337Z,36.49
2017-05-20T05:15:49.657Z,36.3
2017-05-20T05:16:49.664Z,35.91
2017-05-20T05:17:49.675Z,35.91
2017-05-20T05:18:49.419Z,35.15
2017-05-20T05:19:49.746Z,35.05
2017-05-20T05:20:49.699Z,35.46
2017-05-20T05:21:49.706Z,35.73
2017-05-20T05:22:49.712Z,36.02
2017-05-20T05:23:49.772Z,36.51
2017-05-20T05:24:49.781Z,36.32
2017-05-20T05:25:49.433Z,35.54
2017-05-20T05:26:50.045Z,35.46
2017-05-20T05:27:49.804Z,35.27
2017-05-20T05:28:49.769Z,34.12
2017-05-20T05:29:49.464Z,34.41
2017-05-20T05:30:49.782Z,33.36
2017-05-20T05:31:49.479Z,34.23
2017-05-20T05:32:49.799Z,35.09
2017-05-20T05:33:49.810Z,35.17
2017-05-20T05:34:49.561Z,34.97
2017-05-20T05:35:49.824Z,34.59
2017-05-20T05:36:49.834Z,34.7
2017-05-20T05:37:49.841Z,34.99
2017-05-20T05:38:49.851Z,34.78
2017-05-20T05:39:49.859Z,35.27
2017-05-20T05:40:49.867Z,35.54
2017-05-20T05:41:49.879Z,36.32
2017-05-20T05:42:49.884Z,36.22
2017-05-20T05:43:49.583Z,36.41
2017-05-20T05:44:49.952Z,36.22
2017-05-20T05:45:49.601Z,36.22
2017-05-20T05:46:49.611Z,36.51
2017-05-20T05:47:49.617Z,36.02
2017-05-20T05:48:49.935Z,36.22
2017-05-20T05:49:49.942Z,35.83
2017-05-20T05:50:49.953Z,35.54
2017-05-20T05:51:49.958Z,34.77
2017-05-20T05:52:49.967Z,32.67
2017-05-20T05:53:50.079Z,30.68
2017-05-20T05:54:49.676Z,30.43
2017-05-20T05:55:49.734Z,29.18
2017-05-20T05:56:50.004Z,28.22
2017-05-20T05:57:49.752Z,28.04
2017-05-20T05:58:50.028Z,27.76
2017-05-20T05:59:50.032Z,27.29
2017-05-20T06:00:50.041Z,27.01
2017-05-20T06:01:50.050Z,26.63
2017-05-20T06:02:50.109Z,26.24
2017-05-20T06:03:50.076Z,26.14
2017-05-20T06:04:50.082Z,25.85
2017-05-20T06:05:50.090Z,25.76
2017-05-20T06:06:50.100Z,25.49
2017-05-20T06:07:50.116Z,25.68
2017-05-20T06:08:50.122Z,26.07
2017-05-20T06:09:50.134Z,27.02
2017-05-20T06:10:50.141Z,26.13
2017-05-20T06:11:50.154Z,25.57
2017-05-20T06:12:50.163Z,24.8
2017-05-20T06:13:50.171Z,24.42
2017-05-20T06:14:50.186Z,24.52
2017-05-20T06:15:49.884Z,24.04
2017-05-20T06:16:50.254Z,23.55
2017-05-20T06:17:50.217Z,23.57
2017-05-20T06:18:50.228Z,23.57
2017-05-20T06:19:50.235Z,23.28
2017-05-20T06:20:50.247Z,23.48
2017-05-20T06:21:50.311Z,23.28
2017-05-20T06:22:50.267Z,23.28
2017-05-20T06:23:49.969Z,23.3
2017-05-20T06:24:49.982Z,23.19
2017-05-20T06:25:50.044Z,23.1
2017-05-20T06:26:50.315Z,23.2
2017-05-20T06:27:50.326Z,22.41
2017-05-20T06:28:50.336Z,22.51
2017-05-20T06:29:50.350Z,22.41
2017-05-20T06:30:50.358Z,22.51
2017-05-20T06:31:50.369Z,22.71
2017-05-20T06:32:50.379Z,23.1
2017-05-20T06:33:50.391Z,22.91
2017-05-20T06:34:50.454Z,22.91
2017-05-20T06:35:50.104Z,22.81
2017-05-20T06:36:50.626Z,22.62
2017-05-20T06:37:50.488Z,22.33
2017-05-20T06:38:50.191Z,21.94
2017-05-20T06:39:50.460Z,22.34
2017-05-20T06:40:50.575Z,22.24
2017-05-20T06:41:50.481Z,22.44
2017-05-20T06:42:50.498Z,22.24
2017-05-20T06:43:50.509Z,22.05
2017-05-20T06:44:50.517Z,22.06
2017-05-20T06:45:50.529Z,21.96
2017-05-20T06:46:50.229Z,21.96
2017-05-20T06:47:50.246Z,21.96
2017-05-20T06:48:50.565Z,21.96
2017-05-20T06:49:50.580Z,21.96
2017-05-20T06:50:50.590Z,21.66
2017-05-20T06:51:50.600Z,21.96
2017-05-20T06:52:50.614Z,21.86
2017-05-20T06:53:50.628Z,21.75
2017-05-20T06:54:50.325Z,22.05
2017-05-20T06:55:50.648Z,22.23
2017-05-20T06:56:50.658Z,22.06
2017-05-20T06:57:50.724Z,21.96
2017-05-20T06:58:50.682Z,21.86
2017-05-20T06:59:50.691Z,21.95
2017-05-20T07:00:50.704Z,22.05
2017-05-20T07:01:50.768Z,22.14
2017-05-20T07:02:50.780Z,22.24
2017-05-20T07:03:50.745Z,22.05
2017-05-20T07:04:50.755Z,21.96
2017-05-20T07:05:50.769Z,21.56
2017-05-20T07:06:50.780Z,22.06
2017-05-20T07:07:50.790Z,22.06
2017-05-20T07:08:50.801Z,22.06
2017-05-20T07:09:50.812Z,21.66
2017-05-20T07:10:50.562Z,21.66
2017-05-20T07:11:50.835Z,21.27
2017-05-20T07:12:50.902Z,21.17
2017-05-20T07:13:50.867Z,21.66
2017-05-20T07:14:50.563Z,21.56
2017-05-20T07:15:50.623Z,21.96
2017-05-20T07:16:51.197Z,21.37
2017-05-20T07:17:50.911Z,21.37
2017-05-20T07:18:50.969Z,21.47
2017-05-20T07:19:50.935Z,21.08
2017-05-20T07:20:50.637Z,21.56
2017-05-20T07:21:50.953Z,21.37
2017-05-20T07:22:50.970Z,21.27
2017-05-20T07:23:50.981Z,21.27
2017-05-20T07:24:51.044Z,21.08
2017-05-20T07:25:51.005Z,21.56
2017-05-20T07:26:51.018Z,20.88
2017-05-20T07:27:51.032Z,21.37
2017-05-20T07:28:50.782Z,21.86
2017-05-20T07:29:50.796Z,22.05
2017-05-20T07:30:51.067Z,21.56
2017-05-20T07:31:51.078Z,22.55
2017-05-20T07:32:51.138Z,24.76
2017-05-20T07:33:51.101Z,28.01
2017-05-20T07:34:51.113Z,29.69
2017-05-20T07:35:51.125Z,30.62
2017-05-20T07:36:51.134Z,31.1
2017-05-20T07:37:51.148Z,31.29
2017-05-20T07:38:51.157Z,31.38
2017-05-20T07:39:51.166Z,31.19
2017-05-20T07:40:51.227Z,31.29
2017-05-20T07:41:51.235Z,31.1
2017-05-20T07:42:51.248Z,31.29
2017-05-20T07:43:50.894Z,31.29
2017-05-20T07:44:51.217Z,31.58
2017-05-20T07:45:51.226Z,31.29
2017-05-20T07:46:51.235Z,31.1
2017-05-20T07:47:51.296Z,31
2017-05-20T07:48:51.353Z,31.38
2017-05-20T07:49:51.263Z,31.29
2017-05-20T07:50:51.274Z,31.19
2017-05-20T07:51:51.281Z,31.38
2017-05-20T07:52:51.293Z,31.29
2017-05-20T07:53:51.352Z,31.29
2017-05-20T07:54:50.998Z,31.19
2017-05-20T07:55:51.317Z,31.29
2017-05-20T07:56:51.019Z,31.19
2017-05-20T07:57:51.339Z,31.29
2017-05-20T07:58:51.037Z,31.29
2017-05-20T07:59:51.405Z,31.38
2017-05-20T08:00:51.416Z,31.58
2017-05-20T08:01:51.375Z,31.58
2017-05-20T08:02:51.384Z,31.58
2017-05-20T08:03:51.392Z,31.58
2017-05-20T08:04:51.401Z,31.48
2017-05-20T08:05:51.407Z,31.38
2017-05-20T08:06:51.418Z,31.38
2017-05-20T08:07:51.427Z,31.58
2017-05-20T08:08:51.435Z,31.87
2017-05-20T08:09:51.443Z,31.87
2017-05-20T08:10:51.457Z,31.85
2017-05-20T08:11:51.513Z,31.85
2017-05-20T08:12:51.471Z,31.85
2017-05-20T08:13:51.479Z,32.24
2017-05-20T08:14:51.490Z,32.44
2017-05-20T08:15:51.498Z,32.15
2017-05-20T08:16:51.506Z,32.24
2017-05-20T08:17:51.516Z,32.15
2017-05-20T08:18:51.524Z,32.05
2017-05-20T08:19:51.533Z,32.05
2017-05-20T08:20:51.541Z,31.95
2017-05-20T08:21:51.551Z,32.05
2017-05-20T08:22:51.560Z,32.15
2017-05-20T08:23:51.568Z,32.24
2017-05-20T08:24:51.579Z,32.34
2017-05-20T08:25:51.638Z,32.34
2017-05-20T08:26:51.596Z,32.44
2017-05-20T08:27:51.656Z,32.64
2017-05-20T08:28:51.613Z,32.62
2017-05-20T08:29:51.313Z,32.71
2017-05-20T08:30:51.630Z,32.81
2017-05-20T08:31:51.639Z,32.91
2017-05-20T08:32:51.339Z,32.81
2017-05-20T08:33:51.707Z,33.2
2017-05-20T08:34:51.668Z,33.2
2017-05-20T08:35:51.678Z,33.2
2017-05-20T08:36:51.684Z,33.2
2017-05-20T08:37:51.691Z,33.39
2017-05-20T08:38:51.752Z,33.28
2017-05-20T08:39:51.711Z,33.2
2017-05-20T08:40:51.720Z,33.29
2017-05-20T08:41:51.725Z,32.91
2017-05-20T08:42:51.441Z,33.11
2017-05-20T08:43:51.749Z,33.29
2017-05-20T08:44:51.492Z,33.39
2017-05-20T08:45:51.813Z,33.29
2017-05-20T08:46:51.771Z,33.01
2017-05-20T08:47:51.780Z,33.01
2017-05-20T08:48:51.791Z,33.11
2017-05-20T08:49:51.792Z,33.01
2017-05-20T08:50:51.804Z,33.11
2017-05-20T08:51:51.815Z,33.38
2017-05-20T08:52:51.828Z,33.39
2017-05-20T08:53:51.831Z,33.49
2017-05-20T08:54:51.838Z,33.2
2017-05-20T08:55:51.900Z,33.2
2017-05-20T08:56:51.857Z,32.91
2017-05-20T08:57:51.866Z,33.11
2017-05-20T08:58:51.929Z,33.49
2017-05-20T08:59:51.882Z,33.01
2017-05-20T09:00:51.889Z,33.39
2017-05-20T09:01:51.900Z,33.2
2017-05-20T09:02:51.911Z,33.38
2017-05-20T09:03:51.916Z,33.47
2017-05-20T09:04:51.924Z,33.76
2017-05-20T09:05:51.624Z,33.47
2017-05-20T09:06:51.944Z,33.47
2017-05-20T09:07:51.950Z,33.38
2017-05-20T09:08:51.963Z,33.67
2017-05-20T09:09:51.969Z,33.57
2017-05-20T09:10:51.978Z,33.18
2017-05-20T09:11:51.987Z,33.86
2017-05-20T09:12:51.995Z,33.86
2017-05-20T09:13:52.004Z,33.76
2017-05-20T09:14:52.012Z,33.57
2017-05-20T09:15:52.021Z,33.47
2017-05-20T09:16:52.029Z,33.76
2017-05-20T09:17:52.040Z,33.67
2017-05-20T09:18:52.046Z,33.18
2017-05-20T09:19:52.058Z,33.47
2017-05-20T09:20:52.063Z,33.67
2017-05-20T09:21:52.071Z,33.76
2017-05-20T09:22:52.083Z,33.86
2017-05-20T09:23:51.935Z,33.57
2017-05-20T09:24:51.791Z,33.75
2017-05-20T09:25:52.157Z,33.38
2017-05-20T09:26:52.113Z,33.28
2017-05-20T09:27:51.812Z,33.09
2017-05-20T09:28:52.181Z,32.99
2017-05-20T09:29:52.140Z,32.62
2017-05-20T09:30:52.199Z,32.71
2017-05-20T09:31:52.157Z,32.52
2017-05-20T09:32:51.857Z,32.62
2017-05-20T09:33:52.172Z,32.91
2017-05-20T09:34:52.182Z,32.89
2017-05-20T09:35:52.193Z,33.18
2017-05-20T09:36:52.197Z,33.38
2017-05-20T09:37:51.948Z,33.18
2017-05-20T09:38:52.267Z,33.09
2017-05-20T09:39:52.224Z,32.79
2017-05-20T09:40:52.231Z,33.18
2017-05-20T09:41:52.243Z,33.18
2017-05-20T09:42:52.251Z,33.38
2017-05-20T09:43:52.258Z,33.18
2017-05-20T09:44:52.265Z,33.28
2017-05-20T09:45:52.326Z,33.18
2017-05-20T09:46:52.287Z,33.28
2017-05-20T09:47:52.344Z,33.18
2017-05-20T09:48:52.300Z,32.89
2017-05-20T09:49:52.358Z,33.18
2017-05-20T09:50:52.316Z,33.18
2017-05-20T09:51:52.374Z,33.01
2017-05-20T09:52:52.356Z,32.99
2017-05-20T09:53:52.030Z,32.89
2017-05-20T09:54:52.399Z,32.89
2017-05-20T09:55:52.358Z,32.99
2017-05-20T09:56:52.057Z,32.89
2017-05-20T09:57:52.375Z,32.89
2017-05-20T09:58:52.385Z,33.09
2017-05-20T09:59:52.132Z,33.09
2017-05-20T10:00:52.449Z,32.89
2017-05-20T10:01:52.408Z,32.99
2017-05-20T10:02:52.159Z,33.18
2017-05-20T10:03:52.424Z,33.18
2017-05-20T10:04:52.484Z,33.09
2017-05-20T10:05:52.132Z,33.28
2017-05-20T10:06:52.140Z,33.38
2017-05-20T10:07:52.147Z,32.89
2017-05-20T10:08:52.467Z,32.91
2017-05-20T10:09:52.526Z,32.62
2017-05-20T10:10:52.224Z,32.91
2017-05-20T10:11:52.493Z,32.71
2017-05-20T10:12:52.499Z,32.71
2017-05-20T10:13:52.511Z,32.52
2017-05-20T10:14:52.521Z,32.71
2017-05-20T10:15:52.575Z,32.71
2017-05-20T10:16:52.226Z,32.81
2017-05-20T10:17:52.234Z,32.52
2017-05-20T10:18:52.553Z,32.42
2017-05-20T10:19:52.251Z,31.55
2017-05-20T10:20:52.568Z,31.92
2017-05-20T10:21:52.629Z,32.62
2017-05-20T10:22:52.588Z,32.6
2017-05-20T10:23:52.594Z,32.81
2017-05-20T10:24:52.603Z,32.6
2017-05-20T10:25:52.301Z,32.79
2017-05-20T10:26:52.622Z,32.7
2017-05-20T10:27:52.318Z,32.7
2017-05-20T10:28:52.329Z,32.7
2017-05-20T10:29:52.646Z,32.7
2017-05-20T10:30:52.393Z,32.79
2017-05-20T10:31:52.662Z,32.79
2017-05-20T10:32:52.670Z,32.6
2017-05-20T10:33:52.681Z,32.6
2017-05-20T10:34:52.693Z,32.79
2017-05-20T10:35:52.694Z,32.7
2017-05-20T10:36:52.396Z,33.18
2017-05-20T10:37:52.402Z,32.89
2017-05-20T10:38:52.721Z,33.09
2017-05-20T10:39:52.731Z,32.89
2017-05-20T10:40:52.429Z,32.99
2017-05-20T10:41:52.747Z,32.99
2017-05-20T10:42:52.442Z,32.89
2017-05-20T10:43:52.453Z,32.89
2017-05-20T10:44:52.461Z,32.89
2017-05-20T10:45:52.470Z,32.89
2017-05-20T10:46:52.473Z,32.31
2017-05-20T10:47:52.847Z,32.99
2017-05-20T10:48:52.810Z,32.89
2017-05-20T10:49:52.865Z,33.38
2017-05-20T10:50:52.512Z,32.79
2017-05-20T10:51:52.522Z,32.89
2017-05-20T10:52:52.628Z,32.99
2017-05-20T10:53:52.539Z,32.89
2017-05-20T10:54:52.642Z,32.7
2017-05-20T10:55:52.863Z,32.7
2017-05-20T10:56:52.874Z,32.79
2017-05-20T10:57:52.881Z,32.89
2017-05-20T10:58:52.739Z,32.79
2017-05-20T10:59:52.898Z,32.89
2017-05-20T11:00:52.911Z,32.89
2017-05-20T11:01:52.915Z,32.99
2017-05-20T11:02:52.930Z,32.89
2017-05-20T11:03:52.935Z,32.89
2017-05-20T11:04:52.632Z,32.99
2017-05-20T11:05:52.640Z,32.89
2017-05-20T11:06:52.648Z,32.99
2017-05-20T11:07:52.707Z,32.7
2017-05-20T11:08:52.975Z,32.99
2017-05-20T11:09:52.674Z,32.99
2017-05-20T11:10:52.999Z,32.99
2017-05-20T11:11:53.002Z,32.97
2017-05-20T11:12:52.699Z,33.07
2017-05-20T11:13:53.018Z,33.07
2017-05-20T11:14:52.719Z,33.26
2017-05-20T11:15:52.726Z,33.36
2017-05-20T11:16:53.045Z,33.26
2017-05-20T11:17:53.056Z,32.97
2017-05-20T11:18:53.061Z,33.36
2017-05-20T11:19:52.810Z,32.97
2017-05-20T11:20:53.082Z,33.26
2017-05-20T11:21:53.087Z,32.97
2017-05-20T11:22:52.784Z,32.97
2017-05-20T11:23:53.156Z,32.99
2017-05-20T11:24:53.116Z,32.89
2017-05-20T11:25:53.121Z,32.7
2017-05-20T11:26:53.133Z,32.87
2017-05-20T11:27:53.189Z,32.99
2017-05-20T11:28:52.839Z,32.87
2017-05-20T11:29:53.169Z,32.89
2017-05-20T11:30:53.215Z,32.87
2017-05-20T11:31:53.174Z,33.17
2017-05-20T11:32:53.183Z,33.26
2017-05-20T11:33:53.193Z,33.26
2017-05-20T11:34:53.202Z,33.46
2017-05-20T11:35:53.222Z,33.26
2017-05-20T11:36:52.907Z,32.97
2017-05-20T11:37:53.229Z,32.97
2017-05-20T11:38:52.927Z,32.87
2017-05-20T11:39:52.935Z,33.07
2017-05-20T11:40:53.253Z,33.46
2017-05-20T11:41:52.951Z,32.97
2017-05-20T11:42:52.958Z,32.78
2017-05-20T11:43:52.970Z,32.87
2017-05-20T11:44:53.287Z,32.78
2017-05-20T11:45:53.294Z,32.78
2017-05-20T11:46:53.306Z,32.78
2017-05-20T11:47:53.002Z,32.7
2017-05-20T11:48:53.060Z,32.7
2017-05-20T11:49:53.017Z,32.59
2017-05-20T11:50:53.077Z,33.07
2017-05-20T11:51:53.036Z,33.07
2017-05-20T11:52:53.357Z,32.97
2017-05-20T11:53:53.103Z,33.07
2017-05-20T11:54:53.064Z,32.78
2017-05-20T11:55:53.384Z,32.97
2017-05-20T11:56:53.389Z,32.97
2017-05-20T11:57:53.400Z,33.17
2017-05-20T11:58:53.408Z,32.97
2017-05-20T11:59:53.156Z,32.87
2017-05-20T12:00:53.112Z,33.07
2017-05-20T12:01:53.434Z,32.97
2017-05-20T12:02:53.444Z,32.87
2017-05-20T12:03:53.139Z,32.97
2017-05-20T12:04:53.147Z,33.07
2017-05-20T12:05:53.159Z,33.07
2017-05-20T12:06:53.168Z,33.36
2017-05-20T12:07:53.490Z,33.07
2017-05-20T12:08:53.185Z,33.36
2017-05-20T12:09:53.193Z,33.46
2017-05-20T12:10:53.201Z,33.17
2017-05-20T12:11:53.524Z,33.17
2017-05-20T12:12:53.532Z,33.15
2017-05-20T12:13:53.226Z,33.36
2017-05-20T12:14:53.599Z,33.06
2017-05-20T12:15:53.245Z,33.54
2017-05-20T12:16:53.303Z,33.17
2017-05-20T12:17:53.574Z,33.25
2017-05-20T12:18:53.581Z,33.15
2017-05-20T12:19:53.641Z,33.15
2017-05-20T12:20:53.599Z,33.17
2017-05-20T12:21:53.608Z,32.87
2017-05-20T12:22:53.616Z,32.87
2017-05-20T12:23:53.626Z,32.68
2017-05-20T12:24:53.635Z,32.68
2017-05-20T12:25:53.384Z,32.59
2017-05-20T12:26:53.338Z,32.87
2017-05-20T12:27:53.350Z,32.29
2017-05-20T12:28:53.680Z,32.49
2017-05-20T12:29:53.366Z,32.68
2017-05-20T12:30:53.687Z,32.78
2017-05-20T12:31:53.383Z,32.68
2017-05-20T12:32:53.390Z,32.78
2017-05-20T12:33:53.710Z,32.68
2017-05-20T12:34:53.411Z,32.59
2017-05-20T12:35:53.729Z,32.68
2017-05-20T12:36:53.426Z,32.97
2017-05-20T12:37:53.746Z,32.97
2017-05-20T12:38:53.497Z,32.78
2017-05-20T12:39:53.761Z,32.78
2017-05-20T12:40:53.771Z,33.15
2017-05-20T12:41:53.471Z,32.96
2017-05-20T12:42:53.477Z,33.25
2017-05-20T12:43:53.486Z,33.44
2017-05-20T12:44:53.857Z,33.34
2017-05-20T12:45:53.815Z,33.25
2017-05-20T12:46:53.825Z,33.46
2017-05-20T12:47:53.524Z,33.34
2017-05-20T12:48:53.531Z,33.25
2017-05-20T12:49:53.541Z,33.34
2017-05-20T12:50:53.862Z,33.15
2017-05-20T12:51:53.608Z,33.25
2017-05-20T12:52:53.616Z,33.25
2017-05-20T12:53:53.886Z,33.44
2017-05-20T12:54:53.581Z,33.15